Aracati, Brazil
Current Conditions -  °F | °C
As of 4:00 PM on Thursday 27 Nov 2014 (Local Time) from SBMS Reporting Station
Broken Clouds Broken Clouds  
Wind Chill: 86°   Ceiling: 2500
Heat Index: 92°   Visibility: 6mi
Dew Point: 72°   Wind: 10mph
Humidity: 62%   Direction: 30°NNE
Pressure: 29.83"   Gusts: NA
Location:  4.56°S, 37.77°W
Report Text: SBMS 271900Z 03009KT 9999 BKN025 30/22 Q1010
Loading
Personal Weather Stations






























Interactive Weather Map New forecast layout! Learn more

10-Day Weather Forecast

Advertisements
Track Severe Weather on mobile